Alpaugh, California
Current Conditions -  °F | °C
As of 9:35 PM on Wednesday 26 Nov 2014 (Local Time) from KPTV Reporting Station
Clear Clear  
Wind Chill: 44°   Ceiling: Unl
Heat Index: 46°   Visibility: 4mi
Dew Point: 39°   Wind: 6mph
Humidity: 76%   Direction: 100°E
Pressure: 30.25"   Gusts: NA
Location:  35.89°N, 119.49°W
Report Text: KPTV 270535Z AUTO 10005KT 4SM CLR 08/04 A3025 RMK AO1
Loading
Personal Weather Stations






























Interactive Weather Map New forecast layout! Learn more

10-Day Weather Forecast

Advertisements
Track Severe Weather on mobile